Time,TemperatureF,DewpointF,PressureIn,WindDirection,WindDirectionDegrees,WindSpeedMPH,WindSpeedGustMPH,Humidity,HourlyPrecipIn,Conditions,Clouds,dailyrainin,SoftwareType,DateUTC
2013-06-09 00:01:00,70.2,68.1,29.97,North,351,0.0,0.0,93,0.00,,,0.00,WeatherCatV1.02B3,2013-06-09 05:01:00,
2013-06-09 00:06:00,70.1,68.3,29.97,North,351,0.0,2.0,94,0.00,,,0.00,WeatherCatV1.02B3,2013-06-09 05:06:00,
2013-06-09 00:11:00,69.9,68.1,29.97,North,351,0.0,0.0,94,0.00,,,0.00,WeatherCatV1.02B3,2013-06-09 05:11:00,
2013-06-09 00:16:00,69.9,68.1,29.97,North,351,0.0,0.0,94,0.00,,,0.00,WeatherCatV1.02B3,2013-06-09 05:16:00,
2013-06-09 00:21:00,69.8,68.0,29.98,North,351,0.0,0.0,94,0.00,,,0.00,WeatherCatV1.02B3,2013-06-09 05:21:00,
2013-06-09 00:26:00,69.8,68.0,29.98,North,351,0.0,0.0,94,0.00,,,0.00,WeatherCatV1.02B3,2013-06-09 05:26:00,
2013-06-09 00:31:00,69.8,68.0,29.98,North,351,0.0,0.0,94,0.00,,,0.00,WeatherCatV1.02B3,2013-06-09 05:31:00,
2013-06-09 00:36:00,69.8,68.0,29.98,North,351,0.0,0.0,94,0.00,,,0.00,WeatherCatV1.02B3,2013-06-09 05:36:00,
2013-06-09 00:41:00,69.8,68.0,29.98,North,351,0.0,0.0,94,0.00,,,0.00,WeatherCatV1.02B3,2013-06-09 05:41:00,
2013-06-09 00:46:00,69.7,67.9,29.99,North,351,0.0,0.0,94,0.00,,,0.00,WeatherCatV1.02B3,2013-06-09 05:46:00,
2013-06-09 00:51:00,69.8,68.0,29.99,North,351,0.0,1.0,94,0.00,,,0.00,WeatherCatV1.02B3,2013-06-09 05:51:00,
2013-06-09 00:56:00,69.9,68.1,29.99,North,351,0.0,0.0,94,0.00,,,0.00,WeatherCatV1.02B3,2013-06-09 05:56:00,
2013-06-09 01:01:00,69.9,68.4,29.98,North,351,0.0,0.0,95,0.00,,,0.00,WeatherCatV1.02B3,2013-06-09 06:01:00,
2013-06-09 01:06:00,70.0,68.5,29.98,North,351,0.0,0.0,95,0.00,,,0.00,WeatherCatV1.02B3,2013-06-09 06:06:00,
2013-06-09 01:11:00,70.0,68.5,29.98,North,351,0.0,0.0,95,0.00,,,0.00,WeatherCatV1.02B3,2013-06-09 06:11:00,
2013-06-09 01:16:00,70.0,68.5,29.98,North,351,0.0,0.0,95,0.00,,,0.00,WeatherCatV1.02B3,2013-06-09 06:16:00,
2013-06-09 01:21:00,70.1,68.6,29.98,North,351,0.0,0.0,95,0.00,,,0.00,WeatherCatV1.02B3,2013-06-09 06:21:00,
2013-06-09 01:26:00,70.1,68.6,29.98,North,351,0.0,1.0,95,0.00,,,0.00,WeatherCatV1.02B3,2013-06-09 06:26:00,
2013-06-09 01:31:00,70.1,68.6,29.98,North,351,0.0,3.0,95,0.00,,,0.00,WeatherCatV1.02B3,2013-06-09 06:31:00,
2013-06-09 01:36:00,70.1,68.6,29.98,North,351,0.0,0.0,95,0.00,,,0.00,WeatherCatV1.02B3,2013-06-09 06:36:00,
2013-06-09 01:41:00,70.1,68.6,29.98,North,351,0.0,0.0,95,0.00,,,0.00,WeatherCatV1.02B3,2013-06-09 06:41:00,
2013-06-09 01:46:00,70.1,68.6,29.98,North,351,0.0,0.0,95,0.00,,,0.00,WeatherCatV1.02B3,2013-06-09 06:46:00,
2013-06-09 01:51:00,70.0,68.5,29.98,North,351,0.0,0.0,95,0.00,,,0.00,WeatherCatV1.02B3,2013-06-09 06:51:00,
2013-06-09 01:56:00,70.0,68.5,29.98,North,351,0.0,0.0,95,0.00,,,0.00,WeatherCatV1.02B3,2013-06-09 06:56:00,
2013-06-09 02:01:00,70.0,68.5,29.98,North,351,0.0,0.0,95,0.00,,,0.00,WeatherCatV1.02B3,2013-06-09 07:01:00,
2013-06-09 02:06:00,70.0,68.5,29.99,North,351,0.0,0.0,95,0.00,,,0.00,WeatherCatV1.02B3,2013-06-09 07:06:00,
2013-06-09 02:11:00,70.0,68.5,29.99,North,351,0.0,0.0,95,0.00,,,0.00,WeatherCatV1.02B3,2013-06-09 07:11:00,
2013-06-09 02:16:00,70.0,68.5,29.99,North,351,0.0,0.0,95,0.00,,,0.00,WeatherCatV1.02B3,2013-06-09 07:16:00,
2013-06-09 02:21:00,69.9,68.4,29.99,North,351,0.0,0.0,95,0.00,,,0.00,WeatherCatV1.02B3,2013-06-09 07:21:00,
2013-06-09 02:26:00,69.9,68.4,29.98,North,351,0.0,0.0,95,0.00,,,0.00,WeatherCatV1.02B3,2013-06-09 07:26:00,
2013-06-09 02:31:00,69.8,68.3,29.99,North,351,0.0,1.0,95,0.00,,,0.00,WeatherCatV1.02B3,2013-06-09 07:31:00,
2013-06-09 02:36:00,69.9,68.4,29.99,North,351,0.0,0.0,95,0.00,,,0.00,WeatherCatV1.02B3,2013-06-09 07:36:00,
2013-06-09 02:41:00,69.9,68.4,29.99,North,351,0.0,0.0,95,0.00,,,0.00,WeatherCatV1.02B3,2013-06-09 07:41:00,
2013-06-09 02:46:00,69.9,68.4,29.99,North,351,0.0,0.0,95,0.00,,,0.00,WeatherCatV1.02B3,2013-06-09 07:46:00,
2013-06-09 02:51:00,69.9,68.4,29.99,North,351,0.0,0.0,95,0.00,,,0.00,WeatherCatV1.02B3,2013-06-09 07:51:00,
2013-06-09 02:56:00,69.9,68.4,29.99,North,351,0.0,1.0,95,0.00,,,0.00,WeatherCatV1.02B3,2013-06-09 07:56:00,
2013-06-09 03:01:00,69.9,68.4,29.99,North,351,0.0,1.0,95,0.00,,,0.00,WeatherCatV1.02B3,2013-06-09 08:01:00,
2013-06-09 03:06:00,69.9,68.4,29.98,North,351,0.0,0.0,95,0.00,,,0.00,WeatherCatV1.02B3,2013-06-09 08:06:00,
2013-06-09 03:11:00,69.8,68.3,29.98,North,351,0.0,0.0,95,0.00,,,0.00,WeatherCatV1.02B3,2013-06-09 08:11:00,
2013-06-09 03:16:00,69.8,68.3,29.99,North,351,0.0,0.0,95,0.00,,,0.00,WeatherCatV1.02B3,2013-06-09 08:16:00,
2013-06-09 03:21:00,69.7,68.2,29.99,North,351,0.0,0.0,95,0.00,,,0.00,WeatherCatV1.02B3,2013-06-09 08:21:00,
2013-06-09 03:26:00,69.8,68.3,29.99,North,351,0.0,0.0,95,0.00,,,0.00,WeatherCatV1.02B3,2013-06-09 08:26:00,
2013-06-09 03:31:00,69.9,68.4,29.99,North,351,0.0,1.0,95,0.00,,,0.00,WeatherCatV1.02B3,2013-06-09 08:31:00,
2013-06-09 03:36:00,70.0,68.5,29.99,North,351,0.0,1.0,95,0.00,,,0.01,WeatherCatV1.02B3,2013-06-09 08:36:00,
2013-06-09 03:41:00,70.1,68.6,29.99,North,351,0.0,0.0,95,0.00,,,0.01,WeatherCatV1.02B3,2013-06-09 08:41:00,
2013-06-09 03:46:00,70.1,68.6,30.00,North,351,0.0,2.0,95,0.00,,,0.01,WeatherCatV1.02B3,2013-06-09 08:46:00,
2013-06-09 03:51:00,70.2,68.7,30.00,North,351,0.0,1.0,95,0.00,,,0.01,WeatherCatV1.02B3,2013-06-09 08:51:00,
2013-06-09 03:56:00,70.2,69.0,29.99,North,351,0.0,0.0,96,0.00,,,0.01,WeatherCatV1.02B3,2013-06-09 08:56:00,
2013-06-09 04:01:00,70.3,69.1,29.99,North,351,0.0,0.0,96,0.00,,,0.01,WeatherCatV1.02B3,2013-06-09 09:01:00,
2013-06-09 04:06:00,70.3,69.1,29.99,North,351,0.0,1.0,96,0.00,,,0.01,WeatherCatV1.02B3,2013-06-09 09:06:00,
2013-06-09 04:11:00,70.3,69.1,29.99,North,351,0.0,0.0,96,0.00,,,0.01,WeatherCatV1.02B3,2013-06-09 09:11:00,
2013-06-09 04:16:00,70.3,69.1,29.99,North,351,0.0,0.0,96,0.00,,,0.01,WeatherCatV1.02B3,2013-06-09 09:16:00,
2013-06-09 04:21:00,70.3,69.1,30.00,North,351,0.0,0.0,96,0.00,,,0.01,WeatherCatV1.02B3,2013-06-09 09:21:00,
2013-06-09 04:26:00,70.4,69.2,30.00,North,351,0.0,0.0,96,0.00,,,0.01,WeatherCatV1.02B3,2013-06-09 09:26:00,
2013-06-09 04:31:00,70.4,69.2,29.99,North,351,0.0,1.0,96,0.00,,,0.01,WeatherCatV1.02B3,2013-06-09 09:31:00,
2013-06-09 04:36:00,70.4,69.2,29.99,North,351,0.0,0.0,96,0.00,,,0.01,WeatherCatV1.02B3,2013-06-09 09:36:00,
2013-06-09 04:41:00,70.4,69.2,30.00,North,351,0.0,0.0,96,0.00,,,0.01,WeatherCatV1.02B3,2013-06-09 09:41:00,
2013-06-09 04:46:00,70.4,69.2,29.99,North,351,0.0,0.0,96,0.00,,,0.01,WeatherCatV1.02B3,2013-06-09 09:46:00,
2013-06-09 04:51:00,70.5,69.3,30.00,North,351,0.0,0.0,96,0.00,,,0.01,WeatherCatV1.02B3,2013-06-09 09:51:00,
2013-06-09 04:56:00,70.5,69.3,30.00,North,351,0.0,0.0,96,0.00,,,0.01,WeatherCatV1.02B3,2013-06-09 09:56:00,
2013-06-09 05:01:00,70.5,69.3,30.00,North,351,0.0,0.0,96,0.00,,,0.01,WeatherCatV1.02B3,2013-06-09 10:01:00,
2013-06-09 05:06:00,70.5,69.3,30.00,North,351,0.0,1.0,96,0.00,,,0.01,WeatherCatV1.02B3,2013-06-09 10:06:00,
2013-06-09 05:11:00,70.5,69.3,30.00,North,351,0.0,0.0,96,0.00,,,0.01,WeatherCatV1.02B3,2013-06-09 10:11:00,
2013-06-09 05:16:00,70.5,69.3,30.00,North,351,0.0,1.0,96,0.00,,,0.01,WeatherCatV1.02B3,2013-06-09 10:16:00,
2013-06-09 05:21:00,70.5,69.3,30.00,North,351,0.0,0.0,96,0.00,,,0.01,WeatherCatV1.02B3,2013-06-09 10:21:00,
2013-06-09 05:26:00,70.5,69.3,30.00,North,351,0.0,1.0,96,0.00,,,0.01,WeatherCatV1.02B3,2013-06-09 10:26:00,
2013-06-09 05:31:00,70.6,69.4,30.00,North,351,0.0,0.0,96,0.00,,,0.01,WeatherCatV1.02B3,2013-06-09 10:31:00,
2013-06-09 05:36:00,70.5,69.3,30.00,North,351,0.0,0.0,96,0.00,,,0.01,WeatherCatV1.02B3,2013-06-09 10:36:00,
2013-06-09 05:41:00,70.6,69.4,30.00,North,351,0.0,1.0,96,0.00,,,0.01,WeatherCatV1.02B3,2013-06-09 10:41:00,
2013-06-09 05:46:00,70.6,69.4,30.00,North,351,0.0,0.0,96,0.00,,,0.01,WeatherCatV1.02B3,2013-06-09 10:46:00,
2013-06-09 05:51:00,70.7,69.5,30.00,North,351,1.0,2.0,96,0.00,,,0.01,WeatherCatV1.02B3,2013-06-09 10:51:00,
2013-06-09 05:56:00,70.7,69.5,30.00,North,351,0.0,2.0,96,0.00,,,0.01,WeatherCatV1.02B3,2013-06-09 10:56:00,
2013-06-09 06:01:00,70.6,69.4,30.00,North,351,0.0,0.0,96,0.00,,,0.01,WeatherCatV1.02B3,2013-06-09 11:01:00,
2013-06-09 06:06:00,70.7,69.5,30.00,North,351,0.0,3.0,96,0.00,,,0.01,WeatherCatV1.02B3,2013-06-09 11:06:00,
2013-06-09 06:11:00,70.7,69.5,30.00,North,351,0.0,0.0,96,0.00,,,0.01,WeatherCatV1.02B3,2013-06-09 11:11:00,
2013-06-09 06:16:00,70.7,69.5,30.00,North,351,0.0,0.0,96,0.00,,,0.01,WeatherCatV1.02B3,2013-06-09 11:16:00,
2013-06-09 06:21:00,70.6,69.4,30.00,North,351,0.0,2.0,96,0.00,,,0.01,WeatherCatV1.02B3,2013-06-09 11:21:00,
2013-06-09 06:26:00,70.7,69.5,30.00,North,351,0.0,1.0,96,0.00,,,0.01,WeatherCatV1.02B3,2013-06-09 11:26:00,
2013-06-09 06:31:00,70.7,69.5,30.00,North,351,0.0,1.0,96,0.00,,,0.01,WeatherCatV1.02B3,2013-06-09 11:31:00,
2013-06-09 06:36:00,70.7,69.5,30.00,North,351,0.0,3.0,96,0.00,,,0.01,WeatherCatV1.02B3,2013-06-09 11:36:00,
2013-06-09 06:41:00,70.7,69.5,30.00,North,351,0.0,1.0,96,0.00,,,0.01,WeatherCatV1.02B3,2013-06-09 11:41:00,
2013-06-09 06:46:00,70.7,69.5,30.00,North,355,0.0,1.0,96,0.00,,,0.01,WeatherCatV1.02B3,2013-06-09 11:46:00,
2013-06-09 06:51:00,70.7,69.5,30.00,North,355,0.0,1.0,96,0.00,,,0.01,WeatherCatV1.02B3,2013-06-09 11:51:00,
2013-06-09 06:56:00,70.7,69.5,30.00,North,355,1.0,1.0,96,0.00,,,0.01,WeatherCatV1.02B3,2013-06-09 11:56:00,
2013-06-09 07:01:00,70.8,69.6,30.00,North,355,2.0,2.0,96,0.00,,,0.01,WeatherCatV1.02B3,2013-06-09 12:01:00,
2013-06-09 07:06:00,70.9,69.7,30.00,NNE,23,0.0,3.0,96,0.00,,,0.01,WeatherCatV1.02B3,2013-06-09 12:06:00,
2013-06-09 07:11:00,71.0,69.8,30.00,NE,35,0.0,1.0,96,0.00,,,0.01,WeatherCatV1.02B3,2013-06-09 12:11:00,
2013-06-09 07:16:00,71.1,69.9,29.99,North,11,0.0,1.0,96,0.00,,,0.01,WeatherCatV1.02B3,2013-06-09 12:16:00,
2013-06-09 07:21:00,71.1,69.9,29.99,SE,133,0.0,0.0,96,0.00,,,0.01,WeatherCatV1.02B3,2013-06-09 12:21:00,
2013-06-09 07:26:00,71.2,70.0,29.99,North,355,0.0,4.0,96,0.00,,,0.01,WeatherCatV1.02B3,2013-06-09 12:26:00,
2013-06-09 07:31:00,71.3,70.1,29.99,North,355,2.0,2.0,96,0.00,,,0.01,WeatherCatV1.02B3,2013-06-09 12:31:00,
2013-06-09 07:36:00,71.5,70.0,29.99,NNE,19,0.0,2.0,95,0.00,,,0.01,WeatherCatV1.02B3,2013-06-09 12:36:00,
2013-06-09 07:41:00,71.6,70.4,29.99,North,355,0.0,2.0,96,0.00,,,0.01,WeatherCatV1.02B3,2013-06-09 12:41:00,
2013-06-09 07:46:00,71.8,70.3,29.99,NNW,343,0.0,1.0,95,0.00,,,0.01,WeatherCatV1.02B3,2013-06-09 12:46:00,
2013-06-09 07:51:00,72.0,70.5,30.00,NNW,343,0.0,1.0,95,0.00,,,0.01,WeatherCatV1.02B3,2013-06-09 12:51:00,
2013-06-09 07:56:00,72.2,70.7,30.00,North,355,0.0,6.0,95,0.00,,,0.01,WeatherCatV1.02B3,2013-06-09 12:56:00,
2013-06-09 08:01:00,72.5,70.7,30.00,North,350,0.0,2.0,94,0.00,,,0.01,WeatherCatV1.02B3,2013-06-09 13:01:00,
2013-06-09 08:06:00,72.8,71.0,30.00,North,0,0.0,2.0,94,0.00,,,0.01,WeatherCatV1.02B3,2013-06-09 13:06:00,
2013-06-09 08:11:00,73.0,70.8,30.00,North,349,1.0,4.0,93,0.00,,,0.01,WeatherCatV1.02B3,2013-06-09 13:11:00,
2013-06-09 08:16:00,73.3,70.8,30.00,North,11,5.0,5.0,92,0.00,,,0.01,WeatherCatV1.02B3,2013-06-09 13:16:00,
2013-06-09 08:21:00,73.8,71.3,30.00,NNE,23,1.0,4.0,92,0.00,,,0.01,WeatherCatV1.02B3,2013-06-09 13:21:00,
2013-06-09 08:26:00,74.2,71.4,30.00,North,5,2.0,4.0,91,0.00,,,0.01,WeatherCatV1.02B3,2013-06-09 13:26:00,
2013-06-09 08:31:00,74.5,71.4,30.00,North,0,0.0,3.0,90,0.00,,,0.01,WeatherCatV1.02B3,2013-06-09 13:31:00,
2013-06-09 08:36:00,74.9,71.8,30.00,North,351,2.0,4.0,90,0.00,,,0.01,WeatherCatV1.02B3,2013-06-09 13:36:00,
2013-06-09 08:41:00,75.4,71.9,30.00,North,5,0.0,5.0,89,0.00,,,0.01,WeatherCatV1.02B3,2013-06-09 13:41:00,
2013-06-09 08:46:00,75.7,72.2,30.01,NNW,342,0.0,5.0,89,0.00,,,0.01,WeatherCatV1.02B3,2013-06-09 13:46:00,
2013-06-09 08:51:00,76.0,72.2,30.00,NNE,22,0.0,4.0,88,0.00,,,0.01,WeatherCatV1.02B3,2013-06-09 13:51:00,
2013-06-09 08:56:00,76.2,72.4,30.00,North,351,0.0,5.0,88,0.00,,,0.01,WeatherCatV1.02B3,2013-06-09 13:56:00,
2013-06-09 09:01:00,76.6,72.8,30.00,North,355,0.0,3.0,88,0.00,,,0.01,WeatherCatV1.02B3,2013-06-09 14:01:00,
2013-06-09 09:06:00,76.9,72.7,30.00,North,5,0.0,3.0,87,0.00,,,0.01,WeatherCatV1.02B3,2013-06-09 14:06:00,
2013-06-09 09:11:00,77.1,72.9,30.00,NNW,345,0.0,3.0,87,0.00,,,0.01,WeatherCatV1.02B3,2013-06-09 14:11:00,
2013-06-09 09:16:00,77.3,72.8,30.00,NNW,346,6.0,6.0,86,0.00,,,0.01,WeatherCatV1.02B3,2013-06-09 14:16:00,
2013-06-09 09:21:00,77.3,72.8,30.00,SE,131,0.0,4.0,86,0.00,,,0.01,WeatherCatV1.02B3,2013-06-09 14:21:00,
2013-06-09 09:26:00,77.3,72.8,30.00,North,355,1.0,1.0,86,0.00,,,0.01,WeatherCatV1.02B3,2013-06-09 14:26:00,
2013-06-09 09:31:00,77.3,72.8,30.00,NNE,19,0.0,4.0,86,0.00,,,0.01,WeatherCatV1.02B3,2013-06-09 14:31:00,
2013-06-09 09:36:00,77.5,73.3,30.00,North,349,0.0,5.0,87,0.00,,,0.01,WeatherCatV1.02B3,2013-06-09 14:36:00,
2013-06-09 09:41:00,78.0,73.5,30.00,North,0,2.0,2.0,86,0.00,,,0.01,WeatherCatV1.02B3,2013-06-09 14:41:00,
2013-06-09 09:46:00,78.4,73.9,30.00,NNW,344,0.0,4.0,86,0.00,,,0.01,WeatherCatV1.02B3,2013-06-09 14:46:00,
2013-06-09 09:51:00,78.7,73.8,30.00,North,355,3.0,6.0,85,0.00,,,0.01,WeatherCatV1.02B3,2013-06-09 14:51:00,
2013-06-09 09:56:00,79.0,73.7,30.00,North,355,0.0,4.0,84,0.00,,,0.01,WeatherCatV1.02B3,2013-06-09 14:56:00,
2013-06-09 10:01:00,79.2,73.6,29.99,NW,320,0.0,4.0,83,0.00,,,0.01,WeatherCatV1.02B3,2013-06-09 15:01:00,
2013-06-09 10:06:00,79.4,73.8,29.99,NNE,13,0.0,1.0,83,0.00,,,0.01,WeatherCatV1.02B3,2013-06-09 15:06:00,
2013-06-09 10:11:00,79.7,74.1,30.00,NNE,15,0.0,1.0,83,0.00,,,0.01,WeatherCatV1.02B3,2013-06-09 15:11:00,
2013-06-09 10:16:00,79.9,73.9,29.99,NE,46,2.0,3.0,82,0.00,,,0.01,WeatherCatV1.02B3,2013-06-09 15:16:00,
2013-06-09 10:21:00,80.1,73.7,29.99,NNW,346,2.0,4.0,81,0.00,,,0.01,WeatherCatV1.02B3,2013-06-09 15:21:00,
2013-06-09 10:26:00,80.4,74.0,29.99,North,355,0.0,4.0,81,0.00,,,0.01,WeatherCatV1.02B3,2013-06-09 15:26:00,
2013-06-09 10:31:00,80.7,74.3,29.99,North,0,0.0,3.0,81,0.00,,,0.01,WeatherCatV1.02B3,2013-06-09 15:31:00,
2013-06-09 10:36:00,81.0,74.2,29.99,NNE,15,0.0,2.0,80,0.00,,,0.01,WeatherCatV1.02B3,2013-06-09 15:36:00,
2013-06-09 10:41:00,81.4,74.2,29.99,NNE,20,0.0,0.0,79,0.00,,,0.01,WeatherCatV1.02B3,2013-06-09 15:41:00,
2013-06-09 10:46:00,81.7,74.2,29.99,North,349,5.0,7.0,78,0.00,,,0.01,WeatherCatV1.02B3,2013-06-09 15:46:00,
2013-06-09 10:51:00,82.1,74.5,29.99,NNE,26,0.0,2.0,78,0.00,,,0.01,WeatherCatV1.02B3,2013-06-09 15:51:00,
2013-06-09 10:56:00,82.3,74.3,29.98,NNW,339,1.0,5.0,77,0.00,,,0.01,WeatherCatV1.02B3,2013-06-09 15:56:00,
2013-06-09 11:01:00,82.6,74.6,29.99,WNW,296,0.0,1.0,77,0.00,,,0.01,WeatherCatV1.02B3,2013-06-09 16:01:00,
2013-06-09 11:06:00,82.6,73.4,29.99,NE,36,1.0,2.0,74,0.00,,,0.01,WeatherCatV1.02B3,2013-06-09 16:06:00,
2013-06-09 11:11:00,82.8,75.2,29.99,North,355,0.0,2.0,78,0.00,,,0.01,WeatherCatV1.02B3,2013-06-09 16:11:00,
2013-06-09 11:16:00,83.0,74.2,29.99,NNE,14,0.0,1.0,75,0.00,,,0.01,WeatherCatV1.02B3,2013-06-09 16:16:00,
2013-06-09 11:21:00,83.4,74.6,29.99,NNW,348,0.0,0.0,75,0.00,,,0.01,WeatherCatV1.02B3,2013-06-09 16:21:00,
2013-06-09 11:26:00,83.8,75.0,29.99,North,351,0.0,0.0,75,0.00,,,0.01,WeatherCatV1.02B3,2013-06-09 16:26:00,
2013-06-09 11:31:00,84.1,74.5,29.99,NE,34,0.0,4.0,73,0.00,,,0.01,WeatherCatV1.02B3,2013-06-09 16:31:00,
2013-06-09 11:36:00,84.1,74.9,29.98,NE,34,0.0,0.0,74,0.00,,,0.01,WeatherCatV1.02B3,2013-06-09 16:36:00,
2013-06-09 11:41:00,84.1,74.5,29.98,NNW,342,5.0,9.0,73,0.00,,,0.01,WeatherCatV1.02B3,2013-06-09 16:41:00,
2013-06-09 11:46:00,83.9,74.7,29.98,NNE,21,0.0,2.0,74,0.00,,,0.01,WeatherCatV1.02B3,2013-06-09 16:46:00,
2013-06-09 11:51:00,83.7,74.1,29.98,North,0,2.0,4.0,73,0.00,,,0.01,WeatherCatV1.02B3,2013-06-09 16:51:00,
2013-06-09 11:56:00,83.6,74.4,29.98,NNE,13,1.0,3.0,74,0.00,,,0.01,WeatherCatV1.02B3,2013-06-09 16:56:00,
2013-06-09 12:01:00,83.5,74.7,29.97,NNE,15,0.0,1.0,75,0.00,,,0.01,WeatherCatV1.02B3,2013-06-09 17:01:00,
2013-06-09 12:06:00,83.7,75.3,29.98,NNE,22,0.0,5.0,76,0.00,,,0.01,WeatherCatV1.02B3,2013-06-09 17:06:00,
2013-06-09 12:11:00,83.7,74.9,29.97,North,11,0.0,2.0,75,0.00,,,0.01,WeatherCatV1.02B3,2013-06-09 17:11:00,
2013-06-09 12:16:00,83.6,74.4,29.97,NNE,32,0.0,2.0,74,0.00,,,0.01,WeatherCatV1.02B3,2013-06-09 17:16:00,
2013-06-09 12:21:00,83.3,74.9,29.97,NNE,20,0.0,4.0,76,0.00,,,0.01,WeatherCatV1.02B3,2013-06-09 17:21:00,
2013-06-09 12:26:00,83.4,75.0,29.97,ENE,66,0.0,2.0,76,0.00,,,0.01,WeatherCatV1.02B3,2013-06-09 17:26:00,
2013-06-09 12:31:00,83.5,75.1,29.97,NNE,30,0.0,1.0,76,0.00,,,0.01,WeatherCatV1.02B3,2013-06-09 17:31:00,
2013-06-09 12:36:00,83.7,75.7,29.97,NNE,16,0.0,3.0,77,0.00,,,0.01,WeatherCatV1.02B3,2013-06-09 17:36:00,
2013-06-09 12:41:00,84.1,75.7,29.97,NNE,16,0.0,2.0,76,0.00,,,0.01,WeatherCatV1.02B3,2013-06-09 17:41:00,
2013-06-09 12:46:00,84.6,76.6,29.97,NNE,29,0.0,1.0,77,0.00,,,0.01,WeatherCatV1.02B3,2013-06-09 17:46:00,
2013-06-09 12:51:00,84.8,76.4,29.97,NNW,348,0.0,2.0,76,0.00,,,0.01,WeatherCatV1.02B3,2013-06-09 17:51:00,
2013-06-09 12:53:00,84.8,75.6,29.97,NNE,32,2.0,3.0,74,0.00,,,0.01,WeatherCatV1.02B3,2013-06-09 17:53:00,
2013-06-09 12:58:00,84.3,75.1,29.97,South,179,0.0,4.0,74,0.00,,,0.01,WeatherCatV1.02B3,2013-06-09 17:58:00,
2013-06-09 13:03:00,84.0,75.6,29.97,North,9,0.0,3.0,76,0.00,,,0.01,WeatherCatV1.02B3,2013-06-09 18:03:00,
2013-06-09 13:07:00,84.2,75.4,29.97,NNE,29,1.0,6.0,75,0.00,,,0.01,WeatherCatV1.02B3,2013-06-09 18:07:00,
2013-06-09 13:12:00,84.5,75.7,29.97,NNE,17,0.0,3.0,75,0.00,,,0.01,WeatherCatV1.02B3,2013-06-09 18:12:00,
2013-06-09 13:17:00,84.2,75.0,29.97,North,0,2.0,2.0,74,0.00,,,0.01,WeatherCatV1.02B3,2013-06-09 18:17:00,
2013-06-09 13:22:00,83.9,75.1,29.97,North,5,0.0,2.0,75,0.00,,,0.01,WeatherCatV1.02B3,2013-06-09 18:22:00,
2013-06-09 13:27:00,84.1,75.3,29.96,NNE,14,0.0,5.0,75,0.00,,,0.01,WeatherCatV1.02B3,2013-06-09 18:27:00,
2013-06-09 13:32:00,84.7,75.9,29.96,NNE,33,2.0,4.0,75,0.00,,,0.01,WeatherCatV1.02B3,2013-06-09 18:32:00,
2013-06-09 13:37:00,85.0,75.3,29.95,NE,53,0.0,3.0,73,0.00,,,0.01,WeatherCatV1.02B3,2013-06-09 18:37:00,
2013-06-09 13:42:00,85.7,76.4,29.95,North,0,4.0,4.0,74,0.00,,,0.01,WeatherCatV1.02B3,2013-06-09 18:42:00,
2013-06-09 13:47:00,86.0,75.0,29.95,NNE,18,0.0,4.0,70,0.00,,,0.01,WeatherCatV1.02B3,2013-06-09 18:47:00,
2013-06-09 13:52:00,86.0,75.0,29.94,North,355,0.0,6.0,70,0.00,,,0.01,WeatherCatV1.02B3,2013-06-09 18:52:00,
2013-06-09 13:57:00,86.6,75.2,29.94,NNE,13,2.0,7.0,69,0.00,,,0.01,WeatherCatV1.02B3,2013-06-09 18:57:00,
2013-06-09 14:02:00,86.7,75.3,29.94,North,11,0.0,7.0,69,0.00,,,0.01,WeatherCatV1.02B3,2013-06-09 19:02:00,
2013-06-09 14:07:00,86.6,76.5,29.94,North,355,4.0,5.0,72,0.00,,,0.01,WeatherCatV1.02B3,2013-06-09 19:07:00,
2013-06-09 14:12:00,85.7,73.4,29.94,NNE,13,5.0,8.0,67,0.00,,,0.01,WeatherCatV1.02B3,2013-06-09 19:12:00,
2013-06-09 14:17:00,84.3,74.3,29.93,North,355,5.0,5.0,72,0.00,,,0.01,WeatherCatV1.02B3,2013-06-09 19:17:00,
2013-06-09 14:22:00,84.0,73.1,29.93,North,355,1.0,3.0,70,0.00,,,0.01,WeatherCatV1.02B3,2013-06-09 19:22:00,
2013-06-09 14:27:00,83.5,73.1,29.93,North,355,0.0,7.0,71,0.00,,,0.01,WeatherCatV1.02B3,2013-06-09 19:27:00,
2013-06-09 14:32:00,83.5,72.7,29.94,North,0,5.0,5.0,70,0.00,,,0.01,WeatherCatV1.02B3,2013-06-09 19:32:00,
2013-06-09 14:37:00,83.2,73.2,29.93,North,355,3.0,4.0,72,0.00,,,0.01,WeatherCatV1.02B3,2013-06-09 19:37:00,
2013-06-09 14:42:00,83.2,73.6,29.93,North,355,2.0,5.0,73,0.00,,,0.01,WeatherCatV1.02B3,2013-06-09 19:42:00,
2013-06-09 14:47:00,84.3,74.3,29.93,North,355,1.0,3.0,72,0.00,,,0.01,WeatherCatV1.02B3,2013-06-09 19:47:00,
2013-06-09 14:52:00,84.3,74.3,29.92,North,355,3.0,6.0,72,0.00,,,0.01,WeatherCatV1.02B3,2013-06-09 19:52:00,
2013-06-09 14:57:00,85.1,76.3,29.92,North,9,0.0,4.0,75,0.00,,,0.01,WeatherCatV1.02B3,2013-06-09 19:57:00,
2013-06-09 15:02:00,85.6,75.9,29.92,North,355,2.0,4.0,73,0.00,,,0.01,WeatherCatV1.02B3,2013-06-09 20:02:00,
2013-06-09 15:07:00,85.9,75.4,29.92,ENE,66,1.0,4.0,71,0.00,,,0.01,WeatherCatV1.02B3,2013-06-09 20:07:00,
2013-06-09 15:12:00,86.0,75.5,29.92,NNE,33,2.0,5.0,71,0.00,,,0.01,WeatherCatV1.02B3,2013-06-09 20:12:00,
2013-06-09 15:17:00,86.3,76.2,29.92,NNW,344,3.0,4.0,72,0.00,,,0.01,WeatherCatV1.02B3,2013-06-09 20:17:00,
2013-06-09 15:22:00,86.8,75.4,29.92,NNE,12,0.0,2.0,69,0.00,,,0.01,WeatherCatV1.02B3,2013-06-09 20:22:00,
2013-06-09 15:27:00,86.4,75.4,29.92,North,355,1.0,2.0,70,0.00,,,0.01,WeatherCatV1.02B3,2013-06-09 20:27:00,
2013-06-09 15:32:00,86.8,76.7,29.92,North,0,1.0,1.0,72,0.00,,,0.01,WeatherCatV1.02B3,2013-06-09 20:32:00,
2013-06-09 15:37:00,87.2,75.3,29.93,NNE,19,2.0,5.0,68,0.00,,,0.01,WeatherCatV1.02B3,2013-06-09 20:37:00,
2013-06-09 15:42:00,87.4,75.5,29.92,North,351,3.0,6.0,68,0.00,,,0.01,WeatherCatV1.02B3,2013-06-09 20:42:00,
2013-06-09 15:47:00,86.6,74.7,29.92,North,355,0.0,3.0,68,0.00,,,0.01,WeatherCatV1.02B3,2013-06-09 20:47:00,
2013-06-09 15:52:00,85.9,74.5,29.92,North,355,6.0,6.0,69,0.00,,,0.01,WeatherCatV1.02B3,2013-06-09 20:52:00,
2013-06-09 15:57:00,85.7,76.4,29.92,North,0,0.0,1.0,74,0.00,,,0.01,WeatherCatV1.02B3,2013-06-09 20:57:00,
2013-06-09 16:02:00,87.3,76.7,29.92,NNE,32,0.0,4.0,71,0.00,,,0.01,WeatherCatV1.02B3,2013-06-09 21:02:00,
2013-06-09 16:07:00,88.0,75.2,29.91,North,0,5.0,5.0,66,0.00,,,0.01,WeatherCatV1.02B3,2013-06-09 21:07:00,
2013-06-09 16:12:00,87.4,75.1,29.90,NNE,24,1.0,7.0,67,0.00,,,0.01,WeatherCatV1.02B3,2013-06-09 21:12:00,
2013-06-09 16:17:00,87.1,76.1,29.90,North,11,0.0,2.0,70,0.00,,,0.01,WeatherCatV1.02B3,2013-06-09 21:17:00,
2013-06-09 16:22:00,87.1,75.7,29.90,NNE,17,0.0,2.0,69,0.00,,,0.01,WeatherCatV1.02B3,2013-06-09 21:22:00,
2013-06-09 16:27:00,87.6,75.7,29.90,NNE,19,2.0,6.0,68,0.00,,,0.01,WeatherCatV1.02B3,2013-06-09 21:27:00,
2013-06-09 16:32:00,87.2,74.9,29.90,NNE,17,3.0,4.0,67,0.00,,,0.01,WeatherCatV1.02B3,2013-06-09 21:32:00,
2013-06-09 16:37:00,86.6,74.3,29.90,NNE,28,2.0,4.0,67,0.00,,,0.01,WeatherCatV1.02B3,2013-06-09 21:37:00,
2013-06-09 16:42:00,86.0,74.2,29.90,WSW,247,0.0,1.0,68,0.00,,,0.01,WeatherCatV1.02B3,2013-06-09 21:42:00,
2013-06-09 16:47:00,85.6,74.2,29.90,NE,40,2.0,3.0,69,0.00,,,0.01,WeatherCatV1.02B3,2013-06-09 21:47:00,
2013-06-09 16:52:00,85.2,74.3,29.90,NE,41,0.0,0.0,70,0.00,,,0.01,WeatherCatV1.02B3,2013-06-09 21:52:00,
2013-06-09 16:57:00,85.0,74.5,29.91,NE,50,1.0,1.0,71,0.00,,,0.01,WeatherCatV1.02B3,2013-06-09 21:57:00,
2013-06-09 17:02:00,84.7,74.6,29.91,NE,42,0.0,0.0,72,0.00,,,0.01,WeatherCatV1.02B3,2013-06-09 22:02:00,
2013-06-09 17:07:00,84.6,74.6,29.91,NE,36,0.0,0.0,72,0.00,,,0.01,WeatherCatV1.02B3,2013-06-09 22:07:00,
2013-06-09 17:12:00,84.3,74.3,29.91,NE,36,0.0,0.0,72,0.00,,,0.01,WeatherCatV1.02B3,2013-06-09 22:12:00,
2013-06-09 17:17:00,84.0,74.0,29.91,NNE,29,0.0,2.0,72,0.00,,,0.01,WeatherCatV1.02B3,2013-06-09 22:17:00,
2013-06-09 17:22:00,83.7,73.7,29.91,NNW,347,0.0,1.0,72,0.00,,,0.01,WeatherCatV1.02B3,2013-06-09 22:22:00,
2013-06-09 17:27:00,83.6,74.4,29.91,NNW,347,0.0,0.0,74,0.00,,,0.01,WeatherCatV1.02B3,2013-06-09 22:27:00,
2013-06-09 17:32:00,83.4,75.0,29.90,North,0,0.0,2.0,76,0.00,,,0.01,WeatherCatV1.02B3,2013-06-09 22:32:00,
2013-06-09 17:37:00,82.8,76.0,29.92,North,5,0.0,0.0,80,0.24,,,0.03,WeatherCatV1.02B3,2013-06-09 22:37:00,
2013-06-09 17:42:00,81.6,75.2,29.92,East,84,0.0,0.0,81,0.35,,,0.06,WeatherCatV1.02B3,2013-06-09 22:42:00,
2013-06-09 17:47:00,80.2,74.6,29.92,ESE,110,0.0,1.0,83,0.34,,,0.09,WeatherCatV1.02B3,2013-06-09 22:47:00,
2013-06-09 17:52:00,78.9,74.0,29.92,SSE,155,1.0,4.0,85,0.13,,,0.10,WeatherCatV1.02B3,2013-06-09 22:52:00,
2013-06-09 17:57:00,77.7,72.8,29.91,SE,139,0.0,2.0,85,0.77,,,0.14,WeatherCatV1.02B3,2013-06-09 22:57:00,
2013-06-09 18:02:00,76.8,72.6,29.92,SE,139,0.0,1.0,87,0.26,,,0.17,WeatherCatV1.02B3,2013-06-09 23:02:00,
2013-06-09 18:07:00,76.2,72.4,29.91,ENE,69,1.0,2.0,88,0.21,,,0.19,WeatherCatV1.02B3,2013-06-09 23:07:00,
2013-06-09 18:12:00,75.5,72.0,29.91,NE,50,0.0,3.0,89,0.21,,,0.21,WeatherCatV1.02B3,2013-06-09 23:12:00,
2013-06-09 18:17:00,74.8,71.3,29.91,NE,55,0.0,0.0,89,0.15,,,0.23,WeatherCatV1.02B3,2013-06-09 23:17:00,
2013-06-09 18:22:00,74.4,70.9,29.91,WSW,256,0.0,0.0,89,0.15,,,0.24,WeatherCatV1.02B3,2013-06-09 23:22:00,
2013-06-09 18:27:00,74.2,71.1,29.92,ENE,60,1.0,2.0,90,0.09,,,0.24,WeatherCatV1.02B3,2013-06-09 23:27:00,
2013-06-09 18:32:00,74.1,71.0,29.92,ESE,113,0.0,2.0,90,0.05,,,0.24,WeatherCatV1.02B3,2013-06-09 23:32:00,
2013-06-09 18:37:00,73.9,70.8,29.93,ESE,105,1.0,1.0,90,0.04,,,0.24,WeatherCatV1.02B3,2013-06-09 23:37:00,
2013-06-09 18:42:00,74.2,71.7,29.93,NE,36,1.0,5.0,92,0.00,,,0.24,WeatherCatV1.02B3,2013-06-09 23:42:00,
2013-06-09 18:47:00,74.2,71.7,29.92,NE,36,0.0,1.0,92,0.00,,,0.24,WeatherCatV1.02B3,2013-06-09 23:47:00,
2013-06-09 18:52:00,74.0,71.2,29.92,NE,36,2.0,4.0,91,0.00,,,0.24,WeatherCatV1.02B3,2013-06-09 23:52:00,
2013-06-09 18:57:00,73.7,71.2,29.92,NE,36,0.0,2.0,92,0.00,,,0.24,WeatherCatV1.02B3,2013-06-09 23:57:00,
2013-06-09 19:02:00,73.5,71.0,29.92,NE,36,0.0,3.0,92,0.00,,,0.24,WeatherCatV1.02B3,2013-06-10 00:02:00,
2013-06-09 19:07:00,73.4,70.9,29.91,SSW,192,0.0,1.0,92,0.00,,,0.24,WeatherCatV1.02B3,2013-06-10 00:07:00,
2013-06-09 19:12:00,73.3,70.8,29.92,NE,40,0.0,1.0,92,0.00,,,0.24,WeatherCatV1.02B3,2013-06-10 00:12:00,
2013-06-09 19:17:00,73.1,70.6,29.92,North,355,1.0,5.0,92,0.00,,,0.24,WeatherCatV1.02B3,2013-06-10 00:17:00,
2013-06-09 19:22:00,72.8,70.3,29.92,NE,44,2.0,2.0,92,0.00,,,0.24,WeatherCatV1.02B3,2013-06-10 00:22:00,
2013-06-09 19:27:00,72.6,70.1,29.91,NE,36,0.0,1.0,92,0.00,,,0.24,WeatherCatV1.02B3,2013-06-10 00:27:00,
2013-06-09 19:32:00,72.4,69.9,29.92,NNW,344,0.0,0.0,92,0.00,,,0.24,WeatherCatV1.02B3,2013-06-10 00:32:00,
2013-06-09 19:37:00,72.3,70.2,29.92,NNW,344,0.0,1.0,93,0.00,,,0.24,WeatherCatV1.02B3,2013-06-10 00:37:00,
2013-06-09 19:42:00,72.3,70.2,29.92,NNW,345,0.0,3.0,93,0.00,,,0.24,WeatherCatV1.02B3,2013-06-10 00:42:00,
2013-06-09 19:47:00,72.2,70.1,29.92,NNW,345,0.0,2.0,93,0.00,,,0.24,WeatherCatV1.02B3,2013-06-10 00:47:00,
2013-06-09 19:52:00,72.1,70.0,29.92,NE,42,0.0,3.0,93,0.00,,,0.24,WeatherCatV1.02B3,2013-06-10 00:52:00,
2013-06-09 19:57:00,71.9,69.8,29.92,NE,40,2.0,3.0,93,0.00,,,0.24,WeatherCatV1.02B3,2013-06-10 00:57:00,
2013-06-09 20:02:00,71.8,69.7,29.91,NE,50,0.0,2.0,93,0.00,,,0.24,WeatherCatV1.02B3,2013-06-10 01:02:00,
2013-06-09 20:07:00,71.8,69.7,29.92,NE,51,0.0,2.0,93,0.00,,,0.24,WeatherCatV1.02B3,2013-06-10 01:07:00,
2013-06-09 20:12:00,71.7,69.6,29.91,NE,41,1.0,3.0,93,0.00,,,0.24,WeatherCatV1.02B3,2013-06-10 01:12:00,
2013-06-09 20:17:00,71.7,69.6,29.92,NNE,31,3.0,5.0,93,0.00,,,0.24,WeatherCatV1.02B3,2013-06-10 01:17:00,
2013-06-09 20:22:00,71.7,69.9,29.92,NNE,32,0.0,1.0,94,0.00,,,0.24,WeatherCatV1.02B3,2013-06-10 01:22:00,
2013-06-09 20:27:00,71.8,69.7,29.92,NNE,32,0.0,4.0,93,0.00,,,0.24,WeatherCatV1.02B3,2013-06-10 01:27:00,
2013-06-09 20:32:00,71.8,69.7,29.93,NE,53,1.0,3.0,93,0.00,,,0.24,WeatherCatV1.02B3,2013-06-10 01:32:00,
2013-06-09 20:37:00,71.8,70.0,29.93,NE,53,0.0,0.0,94,0.00,,,0.24,WeatherCatV1.02B3,2013-06-10 01:37:00,
2013-06-09 20:42:00,71.9,70.1,29.92,NE,53,0.0,0.0,94,0.00,,,0.25,WeatherCatV1.02B3,2013-06-10 01:42:00,
2013-06-09 20:47:00,71.9,70.1,29.92,NE,53,0.0,0.0,94,0.00,,,0.25,WeatherCatV1.02B3,2013-06-10 01:47:00,
2013-06-09 20:52:00,72.0,70.2,29.92,NE,53,0.0,0.0,94,0.00,,,0.25,WeatherCatV1.02B3,2013-06-10 01:52:00,
2013-06-09 20:57:00,72.0,70.2,29.93,NE,53,0.0,0.0,94,0.04,,,0.26,WeatherCatV1.02B3,2013-06-10 01:57:00,
2013-06-09 21:02:00,71.9,70.1,29.93,NE,53,0.0,1.0,94,0.04,,,0.26,WeatherCatV1.02B3,2013-06-10 02:02:00,
2013-06-09 21:07:00,71.9,70.1,29.93,NE,39,0.0,0.0,94,0.04,,,0.26,WeatherCatV1.02B3,2013-06-10 02:07:00,
2013-06-09 21:12:00,71.9,70.1,29.93,NE,39,0.0,1.0,94,0.00,,,0.26,WeatherCatV1.02B3,2013-06-10 02:12:00,
2013-06-09 21:17:00,71.9,70.1,29.93,NE,39,0.0,1.0,94,0.00,,,0.26,WeatherCatV1.02B3,2013-06-10 02:17:00,
2013-06-09 21:22:00,72.0,70.2,29.94,NE,40,0.0,3.0,94,0.00,,,0.26,WeatherCatV1.02B3,2013-06-10 02:22:00,
2013-06-09 21:27:00,72.0,70.2,29.94,NE,40,0.0,0.0,94,0.00,,,0.26,WeatherCatV1.02B3,2013-06-10 02:27:00,
2013-06-09 21:32:00,72.0,70.2,29.93,East,90,0.0,2.0,94,0.00,,,0.26,WeatherCatV1.02B3,2013-06-10 02:32:00,
2013-06-09 21:37:00,72.0,70.2,29.94,East,90,0.0,0.0,94,0.00,,,0.26,WeatherCatV1.02B3,2013-06-10 02:37:00,
2013-06-09 21:42:00,72.0,70.2,29.94,East,90,0.0,0.0,94,0.00,,,0.26,WeatherCatV1.02B3,2013-06-10 02:42:00,
2013-06-09 21:47:00,72.0,70.2,29.94,East,90,0.0,0.0,94,0.00,,,0.26,WeatherCatV1.02B3,2013-06-10 02:47:00,
2013-06-09 21:52:00,72.1,70.6,29.95,East,90,0.0,0.0,95,0.00,,,0.26,WeatherCatV1.02B3,2013-06-10 02:52:00,
2013-06-09 21:57:00,72.0,70.2,29.95,East,90,0.0,0.0,94,0.00,,,0.26,WeatherCatV1.02B3,2013-06-10 02:57:00,
2013-06-09 22:02:00,72.2,70.7,29.96,East,90,0.0,0.0,95,0.00,,,0.26,WeatherCatV1.02B3,2013-06-10 03:02:00,
2013-06-09 22:07:00,72.2,70.7,29.96,East,90,0.0,0.0,95,0.00,,,0.26,WeatherCatV1.02B3,2013-06-10 03:07:00,
2013-06-09 22:12:00,72.4,70.9,29.96,East,90,0.0,0.0,95,0.00,,,0.26,WeatherCatV1.02B3,2013-06-10 03:12:00,
2013-06-09 22:17:00,72.3,70.8,29.96,East,90,0.0,0.0,95,0.00,,,0.26,WeatherCatV1.02B3,2013-06-10 03:17:00,
2013-06-09 22:22:00,72.4,70.9,29.96,East,90,0.0,0.0,95,0.00,,,0.26,WeatherCatV1.02B3,2013-06-10 03:22:00,
2013-06-09 22:27:00,72.3,70.8,29.97,East,90,0.0,0.0,95,0.00,,,0.26,WeatherCatV1.02B3,2013-06-10 03:27:00,
2013-06-09 22:32:00,72.4,70.9,29.96,East,90,0.0,0.0,95,0.00,,,0.26,WeatherCatV1.02B3,2013-06-10 03:32:00,
2013-06-09 22:37:00,72.4,70.9,29.97,East,90,0.0,0.0,95,0.00,,,0.26,WeatherCatV1.02B3,2013-06-10 03:37:00,
2013-06-09 22:42:00,72.4,70.9,29.97,East,90,0.0,0.0,95,0.00,,,0.26,WeatherCatV1.02B3,2013-06-10 03:42:00,
2013-06-09 22:47:00,72.5,71.0,29.98,East,90,0.0,1.0,95,0.00,,,0.26,WeatherCatV1.02B3,2013-06-10 03:47:00,
2013-06-09 22:52:00,72.5,71.0,29.98,East,90,0.0,0.0,95,0.00,,,0.26,WeatherCatV1.02B3,2013-06-10 03:52:00,
2013-06-09 22:57:00,72.6,71.1,29.98,East,90,0.0,0.0,95,0.00,,,0.26,WeatherCatV1.02B3,2013-06-10 03:57:00,
2013-06-09 23:01:00,72.6,71.1,29.98,East,90,1.0,1.0,95,0.00,,,0.26,WeatherCatV1.02B3,2013-06-10 04:01:00,
2013-06-09 23:06:00,72.7,71.2,29.98,East,90,0.0,0.0,95,0.00,,,0.26,WeatherCatV1.02B3,2013-06-10 04:06:00,
2013-06-09 23:11:00,72.8,71.3,29.97,East,90,0.0,0.0,95,0.00,,,0.26,WeatherCatV1.02B3,2013-06-10 04:11:00,
2013-06-09 23:16:00,72.8,71.3,29.97,East,90,0.0,2.0,95,0.00,,,0.26,WeatherCatV1.02B3,2013-06-10 04:16:00,
2013-06-09 23:21:00,72.8,71.3,29.97,NE,47,0.0,0.0,95,0.00,,,0.26,WeatherCatV1.02B3,2013-06-10 04:21:00,
2013-06-09 23:26:00,72.8,71.3,29.98,NE,47,0.0,1.0,95,0.00,,,0.26,WeatherCatV1.02B3,2013-06-10 04:26:00,
2013-06-09 23:31:00,72.9,71.4,29.98,NE,47,0.0,1.0,95,0.00,,,0.26,WeatherCatV1.02B3,2013-06-10 04:31:00,
2013-06-09 23:36:00,72.9,71.4,29.98,NE,48,0.0,2.0,95,0.00,,,0.26,WeatherCatV1.02B3,2013-06-10 04:36:00,
2013-06-09 23:41:00,73.0,71.5,29.97,NE,48,0.0,0.0,95,0.00,,,0.26,WeatherCatV1.02B3,2013-06-10 04:41:00,
2013-06-09 23:46:00,73.0,71.5,29.97,NE,48,0.0,0.0,95,0.00,,,0.26,WeatherCatV1.02B3,2013-06-10 04:46:00,
2013-06-09 23:51:00,73.0,71.5,29.96,NE,43,0.0,2.0,95,0.00,,,0.26,WeatherCatV1.02B3,2013-06-10 04:51:00,
2013-06-09 23:56:00,73.0,71.5,29.96,NE,43,0.0,0.0,95,0.00,,,0.26,WeatherCatV1.02B3,2013-06-10 04:56:00,